createdAt,value
2022-08-24T00:01:33.311Z,2.03
2022-08-24T00:06:31.100Z,1.98
2022-08-24T00:11:28.657Z,1.75
2022-08-24T00:16:26.249Z,2.20
2022-08-24T00:21:23.864Z,2.47
2022-08-24T00:26:28.642Z,1.90
2022-08-24T00:31:27.182Z,1.95
2022-08-24T00:36:25.129Z,1.52
2022-08-24T00:41:22.864Z,1.70
2022-08-24T00:46:45.209Z,2.33
2022-08-24T00:51:52.396Z,2.03
2022-08-24T00:57:02.235Z,2.00
2022-08-24T01:02:09.029Z,1.90
2022-08-24T01:07:13.426Z,2.35
2022-08-24T01:12:11.360Z,1.70
2022-08-24T01:17:27.788Z,2.30
2022-08-24T01:22:37.244Z,1.90
2022-08-24T01:27:36.891Z,1.92
2022-08-24T01:32:34.337Z,2.30
2022-08-24T01:37:33.219Z,1.90
2022-08-24T01:42:30.663Z,1.75
2022-08-24T01:47:29.433Z,1.95
2022-08-24T01:52:38.913Z,1.90
2022-08-24T01:57:45.519Z,2.08
2022-08-24T02:02:44.556Z,2.05
2022-08-24T02:07:41.982Z,2.22
2022-08-24T02:12:41.790Z,3.13
2022-08-24T02:17:40.904Z,2.15
2022-08-24T02:22:41.114Z,1.77
2022-08-24T02:27:38.438Z,1.92
2022-08-24T02:32:35.793Z,2.45
2022-08-24T02:37:33.447Z,4.65
2022-08-24T02:42:32.972Z,2.63
2022-08-24T02:47:38.162Z,3.17
2022-08-24T02:52:38.288Z,2.00
2022-08-24T02:57:35.815Z,1.97
2022-08-24T03:02:36.525Z,2.47
2022-08-24T03:07:34.018Z,2.08
2022-08-24T03:12:31.877Z,1.75
2022-08-24T03:17:31.695Z,2.03
2022-08-24T03:22:29.087Z,2.20
2022-08-24T03:27:26.948Z,1.90
2022-08-24T03:32:24.368Z,1.65
2022-08-24T03:37:22.658Z,2.10
2022-08-24T03:42:20.923Z,2.10
2022-08-24T03:47:20.523Z,2.50
2022-08-24T03:52:19.797Z,2.60
2022-08-24T03:57:21.535Z,2.00
2022-08-24T04:02:19.932Z,2.40
2022-08-24T04:07:20.268Z,4.68
2022-08-24T04:12:17.699Z,2.33
2022-08-24T04:17:14.954Z,2.22
2022-08-24T04:22:12.229Z,2.47
2022-08-24T04:27:09.513Z,1.85
2022-08-24T04:32:07.900Z,2.33
2022-08-24T04:37:08.496Z,3.03
2022-08-24T04:42:09.135Z,2.20
2022-08-24T04:47:07.652Z,2.80
2022-08-24T04:52:05.756Z,2.55
2022-08-24T04:57:03.061Z,2.33
2022-08-24T05:02:00.400Z,1.88
2022-08-24T05:06:57.728Z,1.60
2022-08-24T05:11:55.929Z,2.03
2022-08-24T05:16:53.961Z,2.17
2022-08-24T05:21:51.549Z,2.47
2022-08-24T05:26:49.910Z,2.33
2022-08-24T05:31:47.764Z,2.00
2022-08-24T05:36:45.692Z,2.00
2022-08-24T05:41:45.349Z,2.38
2022-08-24T05:46:43.427Z,2.20
2022-08-24T05:51:42.973Z,2.00
2022-08-24T05:56:40.920Z,1.70
2022-08-24T06:01:42.174Z,2.10
2022-08-24T06:06:43.000Z,2.00
2022-08-24T06:11:41.393Z,2.42
2022-08-24T06:16:41.479Z,1.98
2022-08-24T06:21:39.940Z,2.47
2022-08-24T06:26:56.099Z,2.83
2022-08-24T06:31:54.200Z,2.50
2022-08-24T06:36:53.005Z,2.10
2022-08-24T06:41:51.159Z,2.08
2022-08-24T06:46:48.612Z,2.45
2022-08-24T06:51:50.419Z,2.03
2022-08-24T06:56:48.424Z,2.40
2022-08-24T07:01:46.047Z,1.65
2022-08-24T07:06:43.499Z,2.10
2022-08-24T07:11:41.520Z,2.20
2022-08-24T07:16:38.996Z,2.25
2022-08-24T07:21:36.345Z,1.88
2022-08-24T07:26:33.781Z,1.80
2022-08-24T07:31:35.925Z,1.83
2022-08-24T07:36:33.856Z,1.70
2022-08-24T07:41:51.484Z,1.30
2022-08-24T07:46:49.707Z,1.75
2022-08-24T07:51:48.713Z,1.25
2022-08-24T07:56:46.069Z,1.52
2022-08-24T08:01:43.537Z,1.27
2022-08-24T08:06:43.299Z,1.10
2022-08-24T08:11:40.635Z,0.98
2022-08-24T08:16:40.513Z,1.13
2022-08-24T08:22:04.497Z,0.80
2022-08-24T08:27:02.077Z,1.13
2022-08-24T08:32:00.977Z,1.30
2022-08-24T08:36:59.062Z,0.98
2022-08-24T08:42:53.288Z,1.15
2022-08-24T08:48:22.320Z,1.00
2022-08-24T08:53:49.812Z,1.20
2022-08-24T08:59:11.334Z,1.08
2022-08-24T09:04:27.751Z,0.80
2022-08-24T09:09:25.549Z,1.00
2022-08-24T09:14:29.592Z,0.90
2022-08-24T09:19:38.257Z,0.90
2022-08-24T09:24:52.477Z,0.70
2022-08-24T09:29:58.652Z,0.88
2022-08-24T09:35:09.749Z,0.88
2022-08-24T09:40:35.867Z,0.68
2022-08-24T09:46:00.371Z,0.60
2022-08-24T09:51:46.274Z,1.48
2022-08-24T09:57:12.373Z,0.90
2022-08-24T10:02:28.930Z,0.80
2022-08-24T10:07:41.810Z,0.80
2022-08-24T10:13:12.486Z,0.95
2022-08-24T10:18:43.611Z,1.20
2022-08-24T10:24:19.696Z,1.35
2022-08-24T10:29:31.391Z,1.45
2022-08-24T10:34:49.425Z,1.30
2022-08-24T10:40:25.399Z,1.30
2022-08-24T10:45:28.906Z,0.90
2022-08-24T10:50:40.986Z,1.25
2022-08-24T10:55:38.831Z,0.98
2022-08-24T11:00:36.957Z,0.95
2022-08-24T11:05:47.491Z,1.00
2022-08-24T11:10:44.917Z,1.02
2022-08-24T11:15:55.976Z,0.95
2022-08-24T11:20:56.041Z,0.60
2022-08-24T11:25:55.327Z,1.10
2022-08-24T11:30:52.651Z,0.77
2022-08-24T11:35:50.184Z,0.98
2022-08-24T11:41:29.230Z,0.95
2022-08-24T11:46:47.389Z,1.15
2022-08-24T11:52:09.300Z,0.90
2022-08-24T11:57:16.345Z,0.85
2022-08-24T12:02:37.007Z,1.05
2022-08-24T12:08:13.454Z,0.90
2022-08-24T12:13:35.633Z,1.10
2022-08-24T12:18:52.730Z,1.05
2022-08-24T12:23:57.887Z,0.98
2022-08-24T12:29:11.103Z,0.93
2022-08-24T12:34:15.294Z,0.70
2022-08-24T12:39:22.629Z,1.00
2022-08-24T12:44:25.503Z,1.05
2022-08-24T12:49:36.704Z,1.08
2022-08-24T12:55:12.657Z,1.38
2022-08-24T13:00:17.183Z,1.50
2022-08-24T13:05:18.881Z,1.02
2022-08-24T13:10:35.531Z,1.30
2022-08-24T13:15:32.775Z,1.10
2022-08-24T13:20:49.916Z,1.23
2022-08-24T13:25:59.919Z,0.93
2022-08-24T13:31:03.378Z,1.10
2022-08-24T13:36:09.219Z,0.90
2022-08-24T13:41:23.248Z,0.80
2022-08-24T13:46:46.664Z,1.27
2022-08-24T13:51:44.074Z,1.73
2022-08-24T13:57:03.784Z,1.27
2022-08-24T14:02:14.603Z,1.52
2022-08-24T14:07:22.302Z,1.20
2022-08-24T14:12:34.763Z,1.10
2022-08-24T14:17:55.311Z,0.85
2022-08-24T14:23:11.474Z,1.38
2022-08-24T14:28:32.015Z,1.27
2022-08-24T14:33:33.516Z,1.40
2022-08-24T14:38:55.095Z,1.90
2022-08-24T14:44:16.865Z,1.30
2022-08-24T14:49:41.781Z,1.40
2022-08-24T14:55:10.130Z,1.30
2022-08-24T15:00:21.739Z,1.20
2022-08-24T15:05:43.875Z,1.60
2022-08-24T15:11:09.460Z,1.40
2022-08-24T15:16:34.971Z,1.20
2022-08-24T15:22:00.435Z,1.48
2022-08-24T15:27:04.000Z,1.20
2022-08-24T15:32:12.550Z,1.52
2022-08-24T15:37:10.700Z,1.30
2022-08-24T15:42:13.627Z,1.33
2022-08-24T15:47:18.549Z,1.65
2022-08-24T15:52:47.442Z,1.70
2022-08-24T15:57:45.716Z,1.58
2022-08-24T16:02:43.821Z,1.80
2022-08-24T16:08:03.437Z,1.60
2022-08-24T16:13:17.710Z,1.30
2022-08-24T16:18:16.700Z,1.33
2022-08-24T16:23:27.434Z,1.67
2022-08-24T16:28:24.850Z,1.55
2022-08-24T16:33:44.193Z,1.70
2022-08-24T16:38:48.178Z,1.67
2022-08-24T16:43:46.384Z,1.63
2022-08-24T16:48:43.720Z,1.90
2022-08-24T16:53:41.061Z,1.90
2022-08-24T16:58:38.372Z,2.50
2022-08-24T17:03:35.832Z,2.28
2022-08-24T17:08:34.366Z,1.90
2022-08-24T17:13:48.989Z,1.85
2022-08-24T17:18:47.712Z,1.80
2022-08-24T17:23:45.623Z,2.40
2022-08-24T17:28:44.602Z,2.90
2022-08-24T17:33:42.563Z,2.67
2022-08-24T17:38:52.943Z,2.30
2022-08-24T17:43:53.292Z,2.10
2022-08-24T17:48:50.742Z,2.85
2022-08-24T17:53:48.102Z,2.78
2022-08-24T17:59:04.024Z,2.75
2022-08-24T18:04:01.404Z,2.05
2022-08-24T18:09:05.026Z,2.47
2022-08-24T18:14:02.682Z,2.40
2022-08-24T18:19:00.040Z,2.33
2022-08-24T18:23:58.442Z,1.98
2022-08-24T18:29:00.320Z,2.05
2022-08-24T18:33:59.413Z,2.20
2022-08-24T18:38:57.295Z,1.88
2022-08-24T18:43:54.908Z,2.95
2022-08-24T18:48:52.399Z,2.83
2022-08-24T18:53:49.931Z,4.03
2022-08-24T18:58:49.173Z,3.05
2022-08-24T19:03:46.824Z,2.50
2022-08-24T19:08:44.225Z,2.50
2022-08-24T19:13:41.873Z,2.72
2022-08-24T19:18:39.583Z,3.00
2022-08-24T19:23:37.823Z,2.85
2022-08-24T19:28:35.159Z,2.67
2022-08-24T19:33:37.292Z,2.83
2022-08-24T19:38:35.072Z,2.13
2022-08-24T19:43:32.783Z,2.70
2022-08-24T19:48:36.935Z,3.22
2022-08-24T19:53:36.925Z,2.95
2022-08-24T19:58:46.644Z,4.10
2022-08-24T20:03:44.063Z,3.50
2022-08-24T20:08:41.773Z,3.25
2022-08-24T20:13:39.514Z,2.80
2022-08-24T20:18:37.843Z,3.80
2022-08-24T20:23:35.376Z,3.05
2022-08-24T20:28:38.329Z,2.67
2022-08-24T20:33:35.954Z,3.53
2022-08-24T20:38:34.410Z,3.28
2022-08-24T20:43:31.767Z,3.08
2022-08-24T20:48:31.595Z,2.80
2022-08-24T20:53:29.140Z,3.60
2022-08-24T20:58:27.098Z,3.40
2022-08-24T21:03:24.404Z,3.38
2022-08-24T21:08:21.799Z,2.83
2022-08-24T21:13:19.357Z,3.42
2022-08-24T21:18:16.943Z,3.03
2022-08-24T21:23:14.606Z,3.50
2022-08-24T21:28:12.993Z,3.38
2022-08-24T21:33:29.928Z,3.22
2022-08-24T21:38:28.524Z,3.53
2022-08-24T21:43:44.670Z,4.20
2022-08-24T21:48:41.930Z,3.10
2022-08-24T21:53:39.275Z,3.60
2022-08-24T21:58:36.548Z,3.08
2022-08-24T22:08:40.180Z,3.00
2022-08-24T22:13:38.649Z,3.17
2022-08-24T22:18:35.954Z,3.50
2022-08-24T22:23:33.294Z,2.63
2022-08-24T22:28:30.841Z,2.80
2022-08-24T22:33:29.798Z,4.03
2022-08-24T22:38:27.148Z,2.57
2022-08-24T22:43:44.368Z,3.10
2022-08-24T22:48:41.782Z,3.28
2022-08-24T22:53:40.664Z,2.90
2022-08-24T22:58:38.051Z,3.90
2022-08-24T23:03:35.403Z,3.40
2022-08-24T23:08:32.810Z,3.25
2022-08-24T23:13:30.280Z,3.50
2022-08-24T23:18:46.377Z,3.20
2022-08-24T23:23:43.782Z,3.45
2022-08-24T23:28:43.686Z,3.10
2022-08-24T23:33:41.581Z,3.60
2022-08-24T23:38:39.638Z,4.05
2022-08-24T23:43:38.035Z,3.85
2022-08-24T23:48:37.738Z,3.53
2022-08-24T23:53:36.484Z,3.83
